createdAt,value
2018-01-21T00:00:14.551Z,32.30
2018-01-21T00:00:48.448Z,37.45
2018-01-21T00:01:22.371Z,33.25
2018-01-21T00:01:56.284Z,35.17
2018-01-21T00:02:30.149Z,35.58
2018-01-21T00:03:04.018Z,36.25
2018-01-21T00:03:37.929Z,34.75
2018-01-21T00:04:11.912Z,31.08
2018-01-21T00:04:46.669Z,35.58
2018-01-21T00:05:20.749Z,31.55
2018-01-21T00:05:54.979Z,35.13
2018-01-21T00:06:28.918Z,35.70
2018-01-21T00:07:02.907Z,34.05
2018-01-21T00:07:36.764Z,36.22
2018-01-21T00:08:10.633Z,39.38
2018-01-21T00:08:44.605Z,33.00
2018-01-21T00:09:18.481Z,36.28
2018-01-21T00:09:52.395Z,36.13
2018-01-21T00:10:26.311Z,33.63
2018-01-21T00:11:00.183Z,33.90
2018-01-21T00:11:34.057Z,35.95
2018-01-21T00:12:08.026Z,34.75
2018-01-21T00:12:41.897Z,34.05
2018-01-21T00:13:15.836Z,35.35
2018-01-21T00:13:49.803Z,33.65
2018-01-21T00:14:23.796Z,32.10
2018-01-21T00:14:57.880Z,34.83
2018-01-21T00:15:31.816Z,32.30
2018-01-21T00:16:05.780Z,34.92
2018-01-21T00:16:39.678Z,34.20
2018-01-21T00:17:13.601Z,37.95
2018-01-21T00:17:47.536Z,40.17
2018-01-21T00:18:21.426Z,36.00
2018-01-21T00:18:55.349Z,35.25
2018-01-21T00:19:29.436Z,44.75
2018-01-21T00:20:03.350Z,35.28
2018-01-21T00:20:37.224Z,30.90
2018-01-21T00:21:11.106Z,35.20
2018-01-21T00:21:45.210Z,36.78
2018-01-21T00:22:25.070Z,33.92
2018-01-21T00:22:58.935Z,36.63
2018-01-21T00:23:32.793Z,37.03
2018-01-21T00:24:06.689Z,34.03
2018-01-21T00:24:40.592Z,39.05
2018-01-21T00:25:14.479Z,36.13
2018-01-21T00:25:48.406Z,38.40
2018-01-21T00:26:22.265Z,36.33
2018-01-21T00:26:56.158Z,33.30
2018-01-21T00:27:30.165Z,40.10
2018-01-21T00:28:04.010Z,37.42
2018-01-21T00:28:37.892Z,41.35
2018-01-21T00:29:11.761Z,39.17
2018-01-21T00:29:45.629Z,32.50
2018-01-21T00:30:19.532Z,34.65
2018-01-21T00:30:53.392Z,29.80
2018-01-21T00:31:27.289Z,36.03
2018-01-21T00:32:01.173Z,33.95
2018-01-21T00:32:35.052Z,33.20
2018-01-21T00:33:08.949Z,34.45
2018-01-21T00:33:42.834Z,39.03
2018-01-21T00:34:16.700Z,32.00
2018-01-21T00:34:50.595Z,36.08
2018-01-21T00:35:24.478Z,37.42
2018-01-21T00:35:58.357Z,35.85
2018-01-21T00:36:32.210Z,35.90
2018-01-21T00:37:06.091Z,29.65
2018-01-21T00:37:39.974Z,31.12
2018-01-21T00:38:13.861Z,30.48
2018-01-21T00:38:47.754Z,34.08
2018-01-21T00:39:21.632Z,29.48
2018-01-21T00:39:55.513Z,31.52
2018-01-21T00:40:29.607Z,35.45
2018-01-21T00:41:03.496Z,32.45
2018-01-21T00:41:37.495Z,33.35
2018-01-21T00:42:11.388Z,36.20
2018-01-21T00:42:45.257Z,33.53
2018-01-21T00:43:19.142Z,33.10
2018-01-21T00:43:53.045Z,33.55
2018-01-21T00:44:26.962Z,38.03
2018-01-21T00:45:00.855Z,34.97
2018-01-21T00:45:34.726Z,33.00
2018-01-21T00:46:08.667Z,38.95
2018-01-21T00:46:42.574Z,35.55
2018-01-21T00:47:16.720Z,37.28
2018-01-21T00:47:50.618Z,44.50
2018-01-21T00:48:24.483Z,34.25
2018-01-21T00:48:58.367Z,36.88
2018-01-21T00:49:32.230Z,33.47
2018-01-21T00:50:06.087Z,39.45
2018-01-21T00:50:39.987Z,38.35
2018-01-21T00:51:13.906Z,32.75
2018-01-21T00:51:47.792Z,39.08
2018-01-21T00:52:21.669Z,39.58
2018-01-21T00:52:55.562Z,36.42
2018-01-21T00:53:29.431Z,36.13
2018-01-21T00:54:03.304Z,48.20
2018-01-21T00:54:37.177Z,43.53
2018-01-21T00:55:11.073Z,40.15
2018-01-21T00:55:44.951Z,32.75
2018-01-21T00:56:18.854Z,37.38
2018-01-21T00:56:52.726Z,36.13
2018-01-21T00:57:26.626Z,29.17
2018-01-21T00:58:00.499Z,36.10
2018-01-21T00:58:34.378Z,35.78
2018-01-21T00:59:08.255Z,30.45
2018-01-21T00:59:42.146Z,34.50
2018-01-21T01:00:16.041Z,35.80
2018-01-21T01:00:49.928Z,40.72
2018-01-21T01:01:23.793Z,35.60
2018-01-21T01:01:57.674Z,31.70
2018-01-21T01:02:31.588Z,32.53
2018-01-21T01:03:05.457Z,34.20
2018-01-21T01:03:39.330Z,29.50
2018-01-21T01:04:13.204Z,31.25
2018-01-21T01:04:47.156Z,35.03
2018-01-21T01:05:21.089Z,36.60
2018-01-21T01:05:54.961Z,38.22
2018-01-21T01:06:28.829Z,35.92
2018-01-21T01:07:02.724Z,34.80
2018-01-21T01:07:36.621Z,34.72
2018-01-21T01:08:10.559Z,29.58
2018-01-21T01:08:44.423Z,33.17
2018-01-21T01:09:18.346Z,35.70
2018-01-21T01:09:52.241Z,38.47
2018-01-21T01:10:26.144Z,36.30
2018-01-21T01:11:00.034Z,34.85
2018-01-21T01:11:33.904Z,35.85
2018-01-21T01:12:07.751Z,37.50
2018-01-21T01:12:41.646Z,40.75
2018-01-21T01:13:15.533Z,35.08
2018-01-21T01:13:49.429Z,34.78
2018-01-21T01:14:23.351Z,34.45
2018-01-21T01:14:57.265Z,32.80
2018-01-21T01:15:31.182Z,33.10
2018-01-21T01:16:05.042Z,36.88
2018-01-21T01:16:38.948Z,33.65
2018-01-21T01:17:12.822Z,37.30
2018-01-21T01:17:46.997Z,35.33
2018-01-21T01:18:20.920Z,34.10
2018-01-21T01:18:54.768Z,34.78
2018-01-21T01:19:28.775Z,32.75
2018-01-21T01:20:02.656Z,30.77
2018-01-21T01:20:36.514Z,33.08
2018-01-21T01:21:10.400Z,31.80
2018-01-21T01:21:44.473Z,32.00
2018-01-21T01:22:18.405Z,33.33
2018-01-21T01:22:52.597Z,40.35
2018-01-21T01:23:26.503Z,41.22
2018-01-21T01:24:00.436Z,34.92
2018-01-21T01:24:34.379Z,51.75
2018-01-21T01:25:08.379Z,35.22
2018-01-21T01:25:42.256Z,51.78
2018-01-21T01:26:16.111Z,53.92
2018-01-21T01:26:49.993Z,35.67
2018-01-21T01:27:23.873Z,31.37
2018-01-21T01:27:57.937Z,31.05
2018-01-21T01:28:31.908Z,34.78
2018-01-21T01:29:05.817Z,32.58
2018-01-21T01:29:39.690Z,34.72
2018-01-21T01:30:13.594Z,33.95
2018-01-21T01:30:47.538Z,33.78
2018-01-21T01:31:21.474Z,34.90
2018-01-21T01:31:55.441Z,35.25
2018-01-21T01:32:32.456Z,30.00
2018-01-21T01:33:06.595Z,33.58
2018-01-21T01:33:40.513Z,38.72
2018-01-21T01:34:14.549Z,32.88
2018-01-21T01:34:48.438Z,35.05
2018-01-21T01:35:22.381Z,31.80
2018-01-21T01:35:56.264Z,36.40
2018-01-21T01:36:30.151Z,32.85
2018-01-21T01:37:04.120Z,36.05
2018-01-21T01:37:38.182Z,40.05
2018-01-21T01:38:12.108Z,35.03
2018-01-21T01:38:46.047Z,36.38
2018-01-21T01:39:19.952Z,34.47
2018-01-21T01:39:54.155Z,35.53
2018-01-21T01:40:28.392Z,33.45
2018-01-21T01:41:02.361Z,30.12
2018-01-21T01:41:36.292Z,35.47
2018-01-21T01:42:10.251Z,33.00
2018-01-21T01:42:44.144Z,34.63
2018-01-21T01:43:18.701Z,33.13
2018-01-21T01:43:53.448Z,36.85
2018-01-21T01:44:27.349Z,33.85
2018-01-21T01:45:01.414Z,30.90
2018-01-21T01:45:35.299Z,37.13
2018-01-21T01:46:09.460Z,30.37
2018-01-21T01:46:43.357Z,33.28
2018-01-21T01:47:17.240Z,32.58
2018-01-21T01:47:51.201Z,27.65
2018-01-21T01:48:25.139Z,41.45
2018-01-21T01:48:59.139Z,33.30
2018-01-21T01:49:33.024Z,34.47
2018-01-21T01:50:07.156Z,36.78
2018-01-21T01:50:41.144Z,35.78
2018-01-21T01:51:15.025Z,30.77
2018-01-21T01:51:49.128Z,30.12
2018-01-21T01:52:22.993Z,30.48
2018-01-21T01:52:56.908Z,32.75
2018-01-21T01:53:30.905Z,34.72
2018-01-21T01:54:04.759Z,31.50
2018-01-21T01:54:38.742Z,33.50
2018-01-21T01:55:12.665Z,37.15
2018-01-21T01:55:46.671Z,35.45
2018-01-21T01:56:20.540Z,33.10
2018-01-21T01:56:54.422Z,35.13
2018-01-21T01:57:28.383Z,30.90
2018-01-21T01:58:02.290Z,33.45
2018-01-21T01:58:36.223Z,35.95
2018-01-21T01:59:10.133Z,34.40
2018-01-21T01:59:43.989Z,32.60
2018-01-21T02:00:17.944Z,34.80
2018-01-21T02:00:51.803Z,39.58
2018-01-21T02:01:25.688Z,31.62
2018-01-21T02:01:59.589Z,34.17
2018-01-21T02:02:33.472Z,30.88
2018-01-21T02:03:07.511Z,36.97
2018-01-21T02:03:41.432Z,33.75
2018-01-21T02:04:15.311Z,33.42
2018-01-21T02:04:49.206Z,37.03
2018-01-21T02:05:23.153Z,35.17
2018-01-21T02:05:57.034Z,33.20
2018-01-21T02:06:30.906Z,33.15
2018-01-21T02:07:04.776Z,31.77
2018-01-21T02:07:38.975Z,36.13
2018-01-21T02:08:13.123Z,37.05
2018-01-21T02:08:47.029Z,38.78
2018-01-21T02:09:20.952Z,35.88
2018-01-21T02:09:54.877Z,35.50
2018-01-21T02:10:28.776Z,39.28
2018-01-21T02:11:02.622Z,31.48
2018-01-21T02:11:36.500Z,35.28
2018-01-21T02:12:10.412Z,33.72
2018-01-21T02:12:44.348Z,41.22
2018-01-21T02:13:18.246Z,37.63
2018-01-21T02:13:52.193Z,36.92
2018-01-21T02:14:26.081Z,41.97
2018-01-21T02:14:59.945Z,34.95
2018-01-21T02:15:33.810Z,37.88
2018-01-21T02:16:07.668Z,33.95
2018-01-21T02:16:42.980Z,40.12
2018-01-21T02:17:16.895Z,32.60
2018-01-21T02:17:50.814Z,34.00
2018-01-21T02:18:24.681Z,35.53
2018-01-21T02:18:58.608Z,36.00
2018-01-21T02:19:32.487Z,33.47
2018-01-21T02:20:06.367Z,42.78
2018-01-21T02:20:40.211Z,44.08
2018-01-21T02:21:14.075Z,35.88
2018-01-21T02:21:47.965Z,34.33
2018-01-21T02:22:21.899Z,38.50
2018-01-21T02:22:55.776Z,36.28
2018-01-21T02:23:29.684Z,33.78
2018-01-21T02:24:03.574Z,32.45
2018-01-21T02:24:37.494Z,39.00
2018-01-21T02:25:11.396Z,33.70
2018-01-21T02:25:45.291Z,36.60
2018-01-21T02:26:19.208Z,35.17
2018-01-21T02:26:53.136Z,34.75
2018-01-21T02:27:27.136Z,37.17
2018-01-21T02:28:01.026Z,33.47
2018-01-21T02:28:34.900Z,34.47
2018-01-21T02:29:08.811Z,34.35
2018-01-21T02:29:42.724Z,33.53
2018-01-21T02:30:16.723Z,33.55
2018-01-21T02:30:50.668Z,39.92
2018-01-21T02:31:25.263Z,38.67
2018-01-21T02:31:59.224Z,33.80
2018-01-21T02:32:33.294Z,33.78
2018-01-21T02:33:07.485Z,34.97
2018-01-21T02:33:42.380Z,39.63
2018-01-21T02:34:16.283Z,32.80
2018-01-21T02:34:50.167Z,36.03
2018-01-21T02:35:24.063Z,34.80
2018-01-21T02:35:58.049Z,32.70
2018-01-21T02:36:31.915Z,35.92
2018-01-21T02:37:05.777Z,37.75
2018-01-21T02:37:39.643Z,37.58
2018-01-21T02:38:13.514Z,43.55
2018-01-21T02:38:47.379Z,40.15
2018-01-21T02:39:21.307Z,37.50
2018-01-21T02:39:55.178Z,39.85
2018-01-21T02:40:29.111Z,34.63
2018-01-21T02:41:02.981Z,35.08
2018-01-21T02:41:36.949Z,36.70
2018-01-21T02:42:10.796Z,40.03
2018-01-21T02:42:44.842Z,37.88
2018-01-21T02:43:18.898Z,34.88
2018-01-21T02:43:52.773Z,35.67
2018-01-21T02:44:26.677Z,35.67
2018-01-21T02:45:00.589Z,34.60
2018-01-21T02:45:34.480Z,36.78
2018-01-21T02:46:08.419Z,34.22
2018-01-21T02:46:42.515Z,33.17
2018-01-21T02:47:16.384Z,33.72
2018-01-21T02:47:50.252Z,37.67
2018-01-21T02:48:24.158Z,37.10
2018-01-21T02:48:58.004Z,37.33
2018-01-21T02:49:31.885Z,32.88
2018-01-21T02:50:05.800Z,35.88
2018-01-21T02:50:39.665Z,36.28
2018-01-21T02:51:13.540Z,37.15
2018-01-21T02:51:47.414Z,35.35
2018-01-21T02:52:21.297Z,44.30
2018-01-21T02:52:55.164Z,35.20
2018-01-21T02:53:29.015Z,34.15
2018-01-21T02:54:02.953Z,38.78
2018-01-21T02:54:36.907Z,39.00
2018-01-21T02:55:10.779Z,38.13
2018-01-21T02:55:44.647Z,35.03
2018-01-21T02:56:18.594Z,42.58
2018-01-21T02:56:52.546Z,43.17
2018-01-21T02:57:26.465Z,42.13
2018-01-21T02:58:00.364Z,42.05
2018-01-21T02:58:34.249Z,44.42
2018-01-21T02:59:08.107Z,40.22
2018-01-21T02:59:41.998Z,41.97
2018-01-21T03:00:15.958Z,38.08
2018-01-21T03:00:49.829Z,37.70
2018-01-21T03:01:23.739Z,41.50
2018-01-21T03:01:57.635Z,41.90
2018-01-21T03:02:31.559Z,38.58
2018-01-21T03:03:05.434Z,37.78
2018-01-21T03:03:39.320Z,40.47
2018-01-21T03:04:13.264Z,46.17
2018-01-21T03:04:47.147Z,39.95
2018-01-21T03:05:21.072Z,43.42
2018-01-21T03:05:54.953Z,40.15
2018-01-21T03:06:28.812Z,39.47
2018-01-21T03:07:02.772Z,43.60
2018-01-21T03:07:36.629Z,39.38
2018-01-21T03:08:10.506Z,40.80
2018-01-21T03:08:44.405Z,42.00
2018-01-21T03:09:18.312Z,45.95
2018-01-21T03:09:52.245Z,45.38
2018-01-21T03:10:26.203Z,38.03
2018-01-21T03:11:00.100Z,40.60
2018-01-21T03:11:33.996Z,44.15
2018-01-21T03:12:07.877Z,44.08
2018-01-21T03:12:41.765Z,43.83
2018-01-21T03:13:15.633Z,43.38
2018-01-21T03:13:49.602Z,48.03
2018-01-21T03:14:23.529Z,39.92
2018-01-21T03:14:57.704Z,43.10
2018-01-21T03:15:31.565Z,43.38
2018-01-21T03:16:05.422Z,43.25
2018-01-21T03:16:39.305Z,47.25
2018-01-21T03:17:13.164Z,40.47
2018-01-21T03:17:47.029Z,45.97
2018-01-21T03:18:20.918Z,49.53
2018-01-21T03:18:54.799Z,41.08
2018-01-21T03:19:28.678Z,44.42
2018-01-21T03:20:02.537Z,49.13
2018-01-21T03:20:36.412Z,43.78
2018-01-21T03:21:10.286Z,45.92
2018-01-21T03:21:44.150Z,43.38
2018-01-21T03:22:18.013Z,44.03
2018-01-21T03:22:51.867Z,48.67
2018-01-21T03:23:25.725Z,46.13
2018-01-21T03:23:59.596Z,46.33
2018-01-21T03:24:33.469Z,38.90
2018-01-21T03:25:07.366Z,45.53
2018-01-21T03:25:41.240Z,41.00
2018-01-21T03:26:15.156Z,44.05
2018-01-21T03:26:49.034Z,40.55
2018-01-21T03:27:22.920Z,41.47
2018-01-21T03:27:56.877Z,41.92
2018-01-21T03:28:30.935Z,41.88
2018-01-21T03:29:04.832Z,41.90
2018-01-21T03:29:38.713Z,40.05
2018-01-21T03:30:12.637Z,45.42
2018-01-21T03:30:46.549Z,46.55
2018-01-21T03:31:20.448Z,45.22
2018-01-21T03:31:54.381Z,45.17
2018-01-21T03:32:28.404Z,45.53
2018-01-21T03:33:02.354Z,46.97
2018-01-21T03:33:36.246Z,49.10
2018-01-21T03:34:10.253Z,48.22
2018-01-21T03:34:44.124Z,45.55
2018-01-21T03:35:18.031Z,49.92
2018-01-21T03:35:51.922Z,43.35
2018-01-21T03:36:25.873Z,44.90
2018-01-21T03:36:59.861Z,48.28
2018-01-21T03:37:33.764Z,45.72
2018-01-21T03:38:07.663Z,46.20
2018-01-21T03:38:41.549Z,43.13
2018-01-21T03:39:15.444Z,51.60
2018-01-21T03:39:49.314Z,44.15
2018-01-21T03:40:23.208Z,43.25
2018-01-21T03:40:57.134Z,51.92
2018-01-21T03:41:31.036Z,47.22
2018-01-21T03:42:04.907Z,50.35
2018-01-21T03:42:38.912Z,43.53
2018-01-21T03:43:12.905Z,43.08
2018-01-21T03:43:46.880Z,54.47
2018-01-21T03:44:20.804Z,44.25
2018-01-21T03:44:54.736Z,49.40
2018-01-21T03:45:28.787Z,44.03
2018-01-21T03:46:02.667Z,45.92
2018-01-21T03:46:36.536Z,46.78
2018-01-21T03:47:10.415Z,45.63
2018-01-21T03:47:44.350Z,53.85
2018-01-21T03:48:18.225Z,46.55
2018-01-21T03:48:52.142Z,45.47
2018-01-21T03:49:25.997Z,48.80
2018-01-21T03:49:59.932Z,49.85
2018-01-21T03:50:34.077Z,40.05
2018-01-21T03:51:07.952Z,44.28
2018-01-21T03:51:41.845Z,45.40
2018-01-21T03:52:15.720Z,46.65
2018-01-21T03:52:49.607Z,52.95
2018-01-21T03:53:23.468Z,47.92
2018-01-21T03:53:57.409Z,52.42
2018-01-21T03:54:31.298Z,46.30
2018-01-21T03:55:05.174Z,46.95
2018-01-21T03:55:39.084Z,49.80
2018-01-21T03:56:12.985Z,50.88
2018-01-21T03:56:46.872Z,49.55
2018-01-21T03:57:20.773Z,50.83
2018-01-21T03:57:54.660Z,55.42
2018-01-21T03:58:28.519Z,50.15
2018-01-21T03:59:02.368Z,53.22
2018-01-21T03:59:36.248Z,49.20
2018-01-21T04:00:10.358Z,51.80
2018-01-21T04:00:44.291Z,44.90
2018-01-21T04:01:18.234Z,46.08
2018-01-21T04:01:52.404Z,49.15
2018-01-21T04:02:26.327Z,45.00
2018-01-21T04:03:00.247Z,46.50
2018-01-21T04:03:34.105Z,48.25
2018-01-21T04:04:08.032Z,49.17
2018-01-21T04:04:41.907Z,46.75
2018-01-21T04:05:15.804Z,51.20
2018-01-21T04:05:49.696Z,46.67
2018-01-21T04:06:23.633Z,46.42
2018-01-21T04:06:57.549Z,46.47
2018-01-21T04:07:31.441Z,45.60
2018-01-21T04:08:05.343Z,46.00
2018-01-21T04:08:39.282Z,48.05
2018-01-21T04:09:13.177Z,42.88
2018-01-21T04:09:47.072Z,49.33
2018-01-21T04:10:21.021Z,42.72
2018-01-21T04:10:54.963Z,41.60
2018-01-21T04:11:28.859Z,42.65
2018-01-21T04:12:02.756Z,48.92
2018-01-21T04:12:36.657Z,47.03
2018-01-21T04:13:10.558Z,44.45
2018-01-21T04:13:44.513Z,41.67
2018-01-21T04:14:18.407Z,40.30
2018-01-21T04:14:52.301Z,42.88
2018-01-21T04:15:26.197Z,43.58
2018-01-21T04:16:00.121Z,46.47
2018-01-21T04:16:34.024Z,48.30
2018-01-21T04:17:07.907Z,44.05
2018-01-21T04:17:41.802Z,43.47
2018-01-21T04:18:15.773Z,46.17
2018-01-21T04:18:49.685Z,39.10
2018-01-21T04:19:23.601Z,45.20
2018-01-21T04:19:57.531Z,50.63
2018-01-21T04:20:31.468Z,43.97
2018-01-21T04:21:05.363Z,50.60
2018-01-21T04:21:39.233Z,42.17
2018-01-21T04:22:13.171Z,42.50
2018-01-21T04:22:47.358Z,42.67
2018-01-21T04:23:21.213Z,41.08
2018-01-21T04:23:55.074Z,44.38
2018-01-21T04:24:28.983Z,44.53
2018-01-21T04:25:02.860Z,43.85
2018-01-21T04:25:36.730Z,43.60
2018-01-21T04:26:10.632Z,44.40
2018-01-21T04:26:44.539Z,42.62
2018-01-21T04:27:18.442Z,45.55
2018-01-21T04:27:52.313Z,40.10
2018-01-21T04:28:26.232Z,45.05
2018-01-21T04:29:00.135Z,42.83
2018-01-21T04:29:34.050Z,45.92
2018-01-21T04:30:07.945Z,43.00
2018-01-21T04:30:41.840Z,43.45
2018-01-21T04:31:15.733Z,42.17
2018-01-21T04:31:49.647Z,39.58
2018-01-21T04:32:23.668Z,37.50
2018-01-21T04:32:57.560Z,40.90
2018-01-21T04:33:31.433Z,37.58
2018-01-21T04:34:05.365Z,38.47
2018-01-21T04:34:39.229Z,43.25
2018-01-21T04:35:13.123Z,39.95
2018-01-21T04:35:47.342Z,37.40
2018-01-21T04:36:21.217Z,40.60
2018-01-21T04:36:55.081Z,37.85
2018-01-21T04:37:28.933Z,37.95
2018-01-21T04:38:02.800Z,39.42
2018-01-21T04:38:36.677Z,44.95
2018-01-21T04:39:10.710Z,39.22
2018-01-21T04:39:44.583Z,42.08
2018-01-21T04:40:18.496Z,44.13
2018-01-21T04:40:52.618Z,41.00
2018-01-21T04:41:26.664Z,35.55
2018-01-21T04:42:00.587Z,38.63
2018-01-21T04:42:34.446Z,39.03
2018-01-21T04:43:08.341Z,49.58
2018-01-21T04:43:42.217Z,42.20
2018-01-21T04:44:16.137Z,44.10
2018-01-21T04:44:50.026Z,39.60
2018-01-21T04:45:23.901Z,43.15
2018-01-21T04:45:57.765Z,38.05
2018-01-21T04:46:31.645Z,39.47
2018-01-21T04:47:05.623Z,39.38
2018-01-21T04:47:39.501Z,40.97
2018-01-21T04:48:13.388Z,41.03
2018-01-21T04:48:47.269Z,42.28
2018-01-21T04:49:21.133Z,41.75
2018-01-21T04:49:55.009Z,41.13
2018-01-21T04:50:28.942Z,38.83
2018-01-21T04:51:02.810Z,39.33
2018-01-21T04:51:36.709Z,35.45
2018-01-21T04:52:10.569Z,38.00
2018-01-21T04:52:44.443Z,44.97
2018-01-21T04:53:18.479Z,36.40
2018-01-21T04:53:52.338Z,37.83
2018-01-21T04:54:26.289Z,40.40
2018-01-21T04:55:00.201Z,37.80
2018-01-21T04:55:34.108Z,42.20
2018-01-21T04:56:08.001Z,42.90
2018-01-21T04:56:41.978Z,36.75
2018-01-21T04:57:15.877Z,40.00
2018-01-21T04:57:49.738Z,38.97
2018-01-21T04:58:23.666Z,42.45
2018-01-21T04:58:57.600Z,42.50
2018-01-21T04:59:31.560Z,44.90
2018-01-21T05:00:05.541Z,44.00
2018-01-21T05:00:39.531Z,36.08
2018-01-21T05:01:13.432Z,38.80
2018-01-21T05:01:47.359Z,36.88
2018-01-21T05:02:21.256Z,38.10
2018-01-21T05:02:55.149Z,41.53
2018-01-21T05:03:29.057Z,43.95
2018-01-21T05:04:02.937Z,43.28
2018-01-21T05:04:36.832Z,43.92
2018-01-21T05:05:10.741Z,45.97
2018-01-21T05:05:44.692Z,37.53
2018-01-21T05:06:18.609Z,39.42
2018-01-21T05:06:52.542Z,44.05
2018-01-21T05:07:26.477Z,39.25
2018-01-21T05:08:00.384Z,37.92
2018-01-21T05:08:34.351Z,44.55
2018-01-21T05:09:08.232Z,40.15
2018-01-21T05:09:42.303Z,41.75
2018-01-21T05:10:16.312Z,39.78
2018-01-21T05:10:50.245Z,40.53
2018-01-21T05:11:24.279Z,41.75
2018-01-21T05:11:58.193Z,45.65
2018-01-21T05:12:32.105Z,38.88
2018-01-21T05:13:05.984Z,38.83
2018-01-21T05:13:39.914Z,39.03
2018-01-21T05:14:13.806Z,43.15
2018-01-21T05:14:47.703Z,43.42
2018-01-21T05:15:21.764Z,45.63
2018-01-21T05:15:55.665Z,45.40
2018-01-21T05:16:29.642Z,41.22
2018-01-21T05:17:03.541Z,37.45
2018-01-21T05:17:37.429Z,38.30
2018-01-21T05:18:11.305Z,43.92
2018-01-21T05:18:45.177Z,39.03
2018-01-21T05:19:19.045Z,40.97
2018-01-21T05:19:52.946Z,43.85
2018-01-21T05:20:26.854Z,45.60
2018-01-21T05:21:00.716Z,44.40
2018-01-21T05:21:34.632Z,43.17
2018-01-21T05:22:08.524Z,42.33
2018-01-21T05:22:42.397Z,40.78
2018-01-21T05:23:16.386Z,40.40
2018-01-21T05:23:50.293Z,40.92
2018-01-21T05:24:24.164Z,44.03
2018-01-21T05:24:58.073Z,40.40
2018-01-21T05:25:31.938Z,45.50
2018-01-21T05:26:05.849Z,45.60
2018-01-21T05:26:39.825Z,41.33
2018-01-21T05:27:13.712Z,42.70
2018-01-21T05:27:47.654Z,43.17
2018-01-21T05:28:21.751Z,42.85
2018-01-21T05:28:55.611Z,43.60
2018-01-21T05:29:29.479Z,46.85
2018-01-21T05:30:03.480Z,42.38
2018-01-21T05:30:37.368Z,46.45
2018-01-21T05:31:11.225Z,41.70
2018-01-21T05:31:45.534Z,46.50
2018-01-21T05:32:19.488Z,45.05
2018-01-21T05:32:53.359Z,39.97
2018-01-21T05:33:27.255Z,43.63
2018-01-21T05:34:01.115Z,40.88
2018-01-21T05:34:34.967Z,40.55
2018-01-21T05:35:08.822Z,43.50
2018-01-21T05:35:42.717Z,42.67
2018-01-21T05:36:16.625Z,39.85
2018-01-21T05:36:50.523Z,47.67
2018-01-21T05:37:24.444Z,49.25
2018-01-21T05:37:58.312Z,43.15
2018-01-21T05:38:32.255Z,46.17
2018-01-21T05:39:06.141Z,51.35
2018-01-21T05:39:40.118Z,46.03
2018-01-21T05:40:14.478Z,53.33
2018-01-21T05:40:48.540Z,41.58
2018-01-21T05:41:22.427Z,44.22
2018-01-21T05:41:56.336Z,46.92
2018-01-21T05:42:30.253Z,43.72
2018-01-21T05:43:04.222Z,47.28
2018-01-21T05:43:38.150Z,38.67
2018-01-21T05:44:12.004Z,42.75
2018-01-21T05:44:45.880Z,43.03
2018-01-21T05:45:19.734Z,45.88
2018-01-21T05:45:53.655Z,40.95
2018-01-21T05:46:27.543Z,41.50
2018-01-21T05:47:01.409Z,40.22
2018-01-21T05:47:35.491Z,40.58
2018-01-21T05:48:09.374Z,42.97
2018-01-21T05:48:43.267Z,42.60
2018-01-21T05:49:17.190Z,43.67
2018-01-21T05:49:51.120Z,43.78
2018-01-21T05:50:25.132Z,42.72
2018-01-21T05:50:59.057Z,39.42
2018-01-21T05:51:33.038Z,47.25
2018-01-21T05:52:07.149Z,44.67
2018-01-21T05:52:41.046Z,43.30
2018-01-21T05:53:15.104Z,39.25
2018-01-21T05:53:49.030Z,45.28
2018-01-21T05:54:22.990Z,35.60
2018-01-21T05:54:56.852Z,40.83
2018-01-21T05:55:30.821Z,46.65
2018-01-21T05:56:04.794Z,39.85
2018-01-21T05:56:38.673Z,43.65
2018-01-21T05:57:12.568Z,41.70
2018-01-21T05:57:46.450Z,50.75
2018-01-21T05:58:20.462Z,41.15
2018-01-21T05:58:54.357Z,42.40
2018-01-21T05:59:28.354Z,41.10
2018-01-21T06:00:02.245Z,43.95
2018-01-21T06:00:36.142Z,45.05
2018-01-21T06:01:10.039Z,40.20
2018-01-21T06:01:43.904Z,39.42
2018-01-21T06:02:17.803Z,42.55
2018-01-21T06:02:51.700Z,40.95
2018-01-21T06:03:25.613Z,45.38
2018-01-21T06:03:59.487Z,37.50
2018-01-21T06:04:33.371Z,39.80
2018-01-21T06:05:07.239Z,42.88
2018-01-21T06:05:41.154Z,43.85
2018-01-21T06:06:15.054Z,39.33
2018-01-21T06:06:48.965Z,46.85
2018-01-21T06:07:22.861Z,41.85
2018-01-21T06:07:56.744Z,49.83
2018-01-21T06:08:30.630Z,42.55
2018-01-21T06:09:04.644Z,41.85
2018-01-21T06:09:38.525Z,41.60
2018-01-21T06:10:12.497Z,41.05
2018-01-21T06:10:46.387Z,40.90
2018-01-21T06:11:20.528Z,46.25
2018-01-21T06:11:54.425Z,47.95
2018-01-21T06:12:28.403Z,44.95
2018-01-21T06:13:02.278Z,45.08
2018-01-21T06:13:36.189Z,39.45
2018-01-21T06:14:10.173Z,43.33
2018-01-21T06:14:44.051Z,44.47
2018-01-21T06:15:17.913Z,44.00
2018-01-21T06:15:51.836Z,45.65
2018-01-21T06:16:25.767Z,45.95
2018-01-21T06:16:59.635Z,41.58
2018-01-21T06:17:33.605Z,45.60
2018-01-21T06:18:07.524Z,46.40
2018-01-21T06:18:41.389Z,43.92
2018-01-21T06:19:15.415Z,44.10
2018-01-21T06:19:49.358Z,44.13
2018-01-21T06:20:23.352Z,46.60
2018-01-21T06:20:57.392Z,45.65
2018-01-21T06:21:31.265Z,43.45
2018-01-21T06:22:05.201Z,43.75
2018-01-21T06:22:39.386Z,44.35
2018-01-21T06:23:13.341Z,48.72
2018-01-21T06:23:47.200Z,47.17
2018-01-21T06:24:21.137Z,50.00
2018-01-21T06:24:55.022Z,47.75
2018-01-21T06:25:28.979Z,45.33
2018-01-21T06:26:02.884Z,46.40
2018-01-21T06:26:36.756Z,45.28
2018-01-21T06:27:10.607Z,44.40
2018-01-21T06:27:44.503Z,44.65
2018-01-21T06:28:18.460Z,43.40
2018-01-21T06:28:52.372Z,49.83
2018-01-21T06:29:26.365Z,48.00
2018-01-21T06:30:00.235Z,47.50
2018-01-21T06:30:34.123Z,51.63
2018-01-21T06:31:08.060Z,45.12
2018-01-21T06:31:41.976Z,50.78
2018-01-21T06:32:15.956Z,50.47
2018-01-21T06:32:49.853Z,52.38
2018-01-21T06:33:23.751Z,51.40
2018-01-21T06:33:57.669Z,46.90
2018-01-21T06:34:31.694Z,49.30
2018-01-21T06:35:05.601Z,56.03
2018-01-21T06:35:39.532Z,49.90
2018-01-21T06:36:13.443Z,50.42
2018-01-21T06:36:47.340Z,57.40
2018-01-21T06:37:21.303Z,51.25
2018-01-21T06:37:55.270Z,55.45
2018-01-21T06:38:29.177Z,54.25
2018-01-21T06:39:03.062Z,58.58
2018-01-21T06:39:36.956Z,51.28
2018-01-21T06:40:11.004Z,51.00
2018-01-21T06:40:44.993Z,60.78
2018-01-21T06:41:18.941Z,56.47
2018-01-21T06:41:52.902Z,60.83
2018-01-21T06:42:26.763Z,61.22
2018-01-21T06:43:00.635Z,56.17
2018-01-21T06:43:34.576Z,63.80
2018-01-21T06:44:08.462Z,67.72
2018-01-21T06:44:42.336Z,54.20
2018-01-21T06:45:16.201Z,62.55
2018-01-21T06:45:50.068Z,61.17
2018-01-21T06:46:23.940Z,66.18
2018-01-21T06:46:57.963Z,60.47
2018-01-21T06:47:31.856Z,63.42
2018-01-21T06:48:05.817Z,63.05
2018-01-21T06:48:39.728Z,63.70
2018-01-21T06:49:13.636Z,69.95
2018-01-21T06:49:47.589Z,65.97
2018-01-21T06:50:21.496Z,63.47
2018-01-21T06:50:55.432Z,67.37
2018-01-21T06:51:29.449Z,64.85
2018-01-21T06:52:03.473Z,66.07
2018-01-21T06:52:37.347Z,59.70
2018-01-21T06:53:11.293Z,73.78
2018-01-21T06:53:45.221Z,58.72
2018-01-21T06:54:19.081Z,63.03
2018-01-21T06:54:53.047Z,68.32
2018-01-21T06:55:27.018Z,65.97
2018-01-21T06:56:00.888Z,65.75
2018-01-21T06:56:34.812Z,64.85
2018-01-21T06:57:08.719Z,66.28
2018-01-21T06:57:42.780Z,63.05
2018-01-21T06:58:17.577Z,71.15
2018-01-21T06:58:51.524Z,70.10
2018-01-21T06:59:25.526Z,69.53
2018-01-21T06:59:59.584Z,66.75
2018-01-21T07:00:33.463Z,75.45
2018-01-21T07:01:07.610Z,63.42
2018-01-21T07:01:41.521Z,72.07
2018-01-21T07:02:15.449Z,72.60
2018-01-21T07:02:49.389Z,78.18
2018-01-21T07:03:23.344Z,68.07
2018-01-21T07:03:57.230Z,74.15
2018-01-21T07:04:31.217Z,72.35
2018-01-21T07:05:05.133Z,70.72
2018-01-21T07:05:39.146Z,73.37
2018-01-21T07:06:13.040Z,76.87
2018-01-21T07:06:48.770Z,74.80
2018-01-21T07:07:22.639Z,72.18
2018-01-21T07:07:56.570Z,76.80
2018-01-21T07:08:30.443Z,75.78
2018-01-21T07:09:04.340Z,74.78
2018-01-21T07:09:38.239Z,76.30
2018-01-21T07:10:12.152Z,73.87
2018-01-21T07:10:46.039Z,67.75
2018-01-21T07:11:19.916Z,80.18
2018-01-21T07:11:53.873Z,75.87
2018-01-21T07:12:27.736Z,70.43
2018-01-21T07:13:01.633Z,71.40
2018-01-21T07:13:35.524Z,71.78
2018-01-21T07:14:09.484Z,82.37
2018-01-21T07:14:43.327Z,65.18
2018-01-21T07:15:17.220Z,71.07
2018-01-21T07:15:51.215Z,70.72
2018-01-21T07:16:25.086Z,75.53
2018-01-21T07:16:58.981Z,77.80